sensor_id;sensor_type;location;lat;lon;timestamp;P1;durP1;ratioP1;P2;durP2;ratioP2
16634;SDS011;8431;52.458;9.998;2024-02-23T00:02:10;5.60;;;5.15;;
16634;SDS011;8431;52.458;9.998;2024-02-23T00:04:39;5.55;;;5.18;;
16634;SDS011;8431;52.458;9.998;2024-02-23T00:07:09;6.88;;;6.28;;
16634;SDS011;8431;52.458;9.998;2024-02-23T00:09:36;6.30;;;6.00;;
16634;SDS011;8431;52.458;9.998;2024-02-23T00:12:03;5.75;;;5.50;;
16634;SDS011;8431;52.458;9.998;2024-02-23T00:14:32;5.72;;;5.53;;
16634;SDS011;8431;52.458;9.998;2024-02-23T00:17:01;5.88;;;5.50;;
16634;SDS011;8431;52.458;9.998;2024-02-23T00:19:29;6.20;;;5.80;;
16634;SDS011;8431;52.458;9.998;2024-02-23T00:21:57;5.65;;;5.22;;
16634;SDS011;8431;52.458;9.998;2024-02-23T00:24:24;6.10;;;5.82;;
16634;SDS011;8431;52.458;9.998;2024-02-23T00:26:51;6.60;;;6.13;;
16634;SDS011;8431;52.458;9.998;2024-02-23T00:29:17;6.45;;;6.15;;
16634;SDS011;8431;52.458;9.998;2024-02-23T00:31:46;6.68;;;6.05;;
16634;SDS011;8431;52.458;9.998;2024-02-23T00:34:13;5.90;;;5.60;;
16634;SDS011;8431;52.458;9.998;2024-02-23T00:36:40;6.15;;;5.95;;
16634;SDS011;8431;52.458;9.998;2024-02-23T00:39:09;5.93;;;5.72;;
16634;SDS011;8431;52.458;9.998;2024-02-23T00:41:36;6.00;;;5.70;;
16634;SDS011;8431;52.458;9.998;2024-02-23T00:44:03;6.15;;;5.95;;
16634;SDS011;8431;52.458;9.998;2024-02-23T00:46:30;5.75;;;5.57;;
16634;SDS011;8431;52.458;9.998;2024-02-23T00:48:58;6.82;;;6.18;;
16634;SDS011;8431;52.458;9.998;2024-02-23T00:51:25;5.65;;;5.50;;
16634;SDS011;8431;52.458;9.998;2024-02-23T00:53:52;6.55;;;6.25;;
16634;SDS011;8431;52.458;9.998;2024-02-23T00:56:19;6.82;;;6.32;;
16634;SDS011;8431;52.458;9.998;2024-02-23T00:58:45;5.53;;;5.32;;
16634;SDS011;8431;52.458;9.998;2024-02-23T01:01:12;5.32;;;4.78;;
16634;SDS011;8431;52.458;9.998;2024-02-23T01:03:39;6.13;;;5.68;;
16634;SDS011;8431;52.458;9.998;2024-02-23T01:06:08;6.40;;;6.00;;
16634;SDS011;8431;52.458;9.998;2024-02-23T01:08:34;6.78;;;6.47;;
16634;SDS011;8431;52.458;9.998;2024-02-23T01:11:01;4.57;;;4.47;;
16634;SDS011;8431;52.458;9.998;2024-02-23T01:13:28;5.50;;;5.20;;
16634;SDS011;8431;52.458;9.998;2024-02-23T01:15:55;5.35;;;5.15;;
16634;SDS011;8431;52.458;9.998;2024-02-23T01:18:22;5.80;;;5.45;;
16634;SDS011;8431;52.458;9.998;2024-02-23T01:20:49;5.53;;;5.32;;
16634;SDS011;8431;52.458;9.998;2024-02-23T01:23:17;5.57;;;5.38;;
16634;SDS011;8431;52.458;9.998;2024-02-23T01:25:44;5.47;;;5.28;;
16634;SDS011;8431;52.458;9.998;2024-02-23T01:28:11;5.55;;;5.25;;
16634;SDS011;8431;52.458;9.998;2024-02-23T01:30:43;4.93;;;4.80;;
16634;SDS011;8431;52.458;9.998;2024-02-23T01:33:09;5.45;;;5.35;;
16634;SDS011;8431;52.458;9.998;2024-02-23T01:35:36;5.78;;;5.35;;
16634;SDS011;8431;52.458;9.998;2024-02-23T01:38:03;5.10;;;5.00;;
16634;SDS011;8431;52.458;9.998;2024-02-23T01:40:31;4.90;;;4.75;;
16634;SDS011;8431;52.458;9.998;2024-02-23T01:43:02;5.13;;;5.03;;
16634;SDS011;8431;52.458;9.998;2024-02-23T01:45:29;4.80;;;4.70;;
16634;SDS011;8431;52.458;9.998;2024-02-23T01:47:56;4.85;;;4.75;;
16634;SDS011;8431;52.458;9.998;2024-02-23T01:50:23;4.93;;;4.82;;
16634;SDS011;8431;52.458;9.998;2024-02-23T01:52:50;5.30;;;5.10;;
16634;SDS011;8431;52.458;9.998;2024-02-23T01:55:17;4.90;;;4.80;;
16634;SDS011;8431;52.458;9.998;2024-02-23T01:57:48;4.88;;;4.78;;
16634;SDS011;8431;52.458;9.998;2024-02-23T02:00:15;4.95;;;4.85;;
16634;SDS011;8431;52.458;9.998;2024-02-23T02:02:43;4.90;;;4.75;;
16634;SDS011;8431;52.458;9.998;2024-02-23T02:05:10;4.90;;;4.70;;
16634;SDS011;8431;52.458;9.998;2024-02-23T02:07:37;4.20;;;4.10;;
16634;SDS011;8431;52.458;9.998;2024-02-23T02:10:06;4.13;;;4.03;;
16634;SDS011;8431;52.458;9.998;2024-02-23T02:12:35;4.97;;;4.60;;
16634;SDS011;8431;52.458;9.998;2024-02-23T02:15:04;4.70;;;4.60;;
16634;SDS011;8431;52.458;9.998;2024-02-23T02:17:32;4.32;;;4.22;;
16634;SDS011;8431;52.458;9.998;2024-02-23T02:19:59;4.03;;;3.92;;
16634;SDS011;8431;52.458;9.998;2024-02-23T02:22:31;3.83;;;3.72;;
16634;SDS011;8431;52.458;9.998;2024-02-23T02:24:59;3.97;;;3.88;;
16634;SDS011;8431;52.458;9.998;2024-02-23T02:27:26;4.22;;;4.13;;
16634;SDS011;8431;52.458;9.998;2024-02-23T02:29:53;4.38;;;4.28;;
16634;SDS011;8431;52.458;9.998;2024-02-23T02:32:21;3.85;;;3.75;;
16634;SDS011;8431;52.458;9.998;2024-02-23T02:34:47;4.22;;;4.13;;
16634;SDS011;8431;52.458;9.998;2024-02-23T02:37:14;4.10;;;4.00;;
16634;SDS011;8431;52.458;9.998;2024-02-23T02:39:41;4.25;;;4.15;;
16634;SDS011;8431;52.458;9.998;2024-02-23T02:42:08;4.30;;;4.20;;
16634;SDS011;8431;52.458;9.998;2024-02-23T02:44:35;3.80;;;3.70;;
16634;SDS011;8431;52.458;9.998;2024-02-23T02:47:02;4.30;;;4.20;;
16634;SDS011;8431;52.458;9.998;2024-02-23T02:49:30;3.92;;;3.83;;
16634;SDS011;8431;52.458;9.998;2024-02-23T02:51:57;4.03;;;3.92;;
16634;SDS011;8431;52.458;9.998;2024-02-23T02:54:24;4.32;;;4.22;;
16634;SDS011;8431;52.458;9.998;2024-02-23T02:56:50;4.25;;;4.15;;
16634;SDS011;8431;52.458;9.998;2024-02-23T02:59:19;3.85;;;3.75;;
16634;SDS011;8431;52.458;9.998;2024-02-23T03:01:46;3.85;;;3.75;;
16634;SDS011;8431;52.458;9.998;2024-02-23T03:04:13;3.65;;;3.55;;
16634;SDS011;8431;52.458;9.998;2024-02-23T03:06:41;3.85;;;3.75;;
16634;SDS011;8431;52.458;9.998;2024-02-23T03:09:07;3.95;;;3.75;;
16634;SDS011;8431;52.458;9.998;2024-02-23T03:11:34;3.75;;;3.65;;
16634;SDS011;8431;52.458;9.998;2024-02-23T03:14:01;4.20;;;4.10;;
16634;SDS011;8431;52.458;9.998;2024-02-23T03:16:28;4.07;;;3.97;;
16634;SDS011;8431;52.458;9.998;2024-02-23T03:18:56;4.10;;;4.00;;
16634;SDS011;8431;52.458;9.998;2024-02-23T03:21:23;3.90;;;3.80;;
16634;SDS011;8431;52.458;9.998;2024-02-23T03:23:51;3.90;;;3.80;;
16634;SDS011;8431;52.458;9.998;2024-02-23T03:26:18;4.00;;;3.90;;
16634;SDS011;8431;52.458;9.998;2024-02-23T03:28:44;4.35;;;3.95;;
16634;SDS011;8431;52.458;9.998;2024-02-23T03:31:11;4.13;;;4.03;;
16634;SDS011;8431;52.458;9.998;2024-02-23T03:33:38;4.75;;;4.50;;
16634;SDS011;8431;52.458;9.998;2024-02-23T03:36:05;3.83;;;3.72;;
16634;SDS011;8431;52.458;9.998;2024-02-23T03:38:32;4.55;;;4.13;;
16634;SDS011;8431;52.458;9.998;2024-02-23T03:41:01;3.78;;;3.67;;
16634;SDS011;8431;52.458;9.998;2024-02-23T03:43:28;4.22;;;4.03;;
16634;SDS011;8431;52.458;9.998;2024-02-23T03:45:54;4.18;;;4.07;;
16634;SDS011;8431;52.458;9.998;2024-02-23T03:48:21;4.78;;;4.68;;
16634;SDS011;8431;52.458;9.998;2024-02-23T03:50:48;5.00;;;4.60;;
16634;SDS011;8431;52.458;9.998;2024-02-23T03:53:15;4.70;;;4.60;;
16634;SDS011;8431;52.458;9.998;2024-02-23T03:55:41;4.40;;;4.30;;
16634;SDS011;8431;52.458;9.998;2024-02-23T03:58:10;4.97;;;4.78;;
16634;SDS011;8431;52.458;9.998;2024-02-23T04:00:36;4.40;;;4.28;;
16634;SDS011;8431;52.458;9.998;2024-02-23T04:03:03;4.05;;;3.90;;
16634;SDS011;8431;52.458;9.998;2024-02-23T04:05:30;3.80;;;3.70;;
16634;SDS011;8431;52.458;9.998;2024-02-23T04:07:57;4.70;;;4.22;;
16634;SDS011;8431;52.458;9.998;2024-02-23T04:10:24;4.40;;;4.30;;
16634;SDS011;8431;52.458;9.998;2024-02-23T04:12:51;4.43;;;4.22;;
16634;SDS011;8431;52.458;9.998;2024-02-23T04:15:19;4.63;;;4.53;;
16634;SDS011;8431;52.458;9.998;2024-02-23T04:17:45;4.18;;;4.07;;
16634;SDS011;8431;52.458;9.998;2024-02-23T04:20:12;4.30;;;4.20;;
16634;SDS011;8431;52.458;9.998;2024-02-23T04:22:39;4.38;;;4.07;;
16634;SDS011;8431;52.458;9.998;2024-02-23T04:25:06;4.78;;;4.57;;
16634;SDS011;8431;52.458;9.998;2024-02-23T04:27:34;4.97;;;4.68;;
16634;SDS011;8431;52.458;9.998;2024-02-23T04:30:00;4.88;;;4.68;;
16634;SDS011;8431;52.458;9.998;2024-02-23T04:32:29;5.05;;;4.82;;
16634;SDS011;8431;52.458;9.998;2024-02-23T04:34:56;4.43;;;4.13;;
16634;SDS011;8431;52.458;9.998;2024-02-23T04:37:22;4.75;;;4.47;;
16634;SDS011;8431;52.458;9.998;2024-02-23T04:39:49;5.80;;;4.60;;
16634;SDS011;8431;52.458;9.998;2024-02-23T04:42:16;5.30;;;5.00;;
16634;SDS011;8431;52.458;9.998;2024-02-23T04:44:43;5.53;;;5.20;;
16634;SDS011;8431;52.458;9.998;2024-02-23T04:47:10;5.38;;;4.90;;
16634;SDS011;8431;52.458;9.998;2024-02-23T04:49:38;5.28;;;5.00;;
16634;SDS011;8431;52.458;9.998;2024-02-23T04:52:05;5.03;;;4.80;;
16634;SDS011;8431;52.458;9.998;2024-02-23T04:54:32;5.50;;;5.30;;
16634;SDS011;8431;52.458;9.998;2024-02-23T04:57:00;4.93;;;4.63;;
16634;SDS011;8431;52.458;9.998;2024-02-23T04:59:26;4.93;;;4.82;;
16634;SDS011;8431;52.458;9.998;2024-02-23T05:01:55;5.07;;;4.68;;
16634;SDS011;8431;52.458;9.998;2024-02-23T05:04:21;5.32;;;4.82;;
16634;SDS011;8431;52.458;9.998;2024-02-23T05:06:49;4.60;;;4.22;;
16634;SDS011;8431;52.458;9.998;2024-02-23T05:09:16;4.53;;;4.43;;
16634;SDS011;8431;52.458;9.998;2024-02-23T05:11:43;4.75;;;4.47;;
16634;SDS011;8431;52.458;9.998;2024-02-23T05:14:11;3.95;;;3.75;;
16634;SDS011;8431;52.458;9.998;2024-02-23T05:16:37;4.90;;;4.70;;
16634;SDS011;8431;52.458;9.998;2024-02-23T05:19:04;5.50;;;5.03;;
16634;SDS011;8431;52.458;9.998;2024-02-23T05:21:31;5.03;;;4.43;;
16634;SDS011;8431;52.458;9.998;2024-02-23T05:24:00;4.75;;;4.40;;
16634;SDS011;8431;52.458;9.998;2024-02-23T05:26:26;4.95;;;3.95;;
16634;SDS011;8431;52.458;9.998;2024-02-23T05:28:53;3.75;;;3.65;;
16634;SDS011;8431;52.458;9.998;2024-02-23T05:31:20;4.22;;;4.10;;
16634;SDS011;8431;52.458;9.998;2024-02-23T05:34:07;4.65;;;4.45;;
16634;SDS011;8431;52.458;9.998;2024-02-23T05:36:34;4.70;;;4.40;;
16634;SDS011;8431;52.458;9.998;2024-02-23T05:39:02;4.53;;;4.32;;
16634;SDS011;8431;52.458;9.998;2024-02-23T05:41:28;4.60;;;4.25;;
16634;SDS011;8431;52.458;9.998;2024-02-23T05:43:56;4.10;;;3.90;;
16634;SDS011;8431;52.458;9.998;2024-02-23T05:46:22;4.03;;;3.85;;
16634;SDS011;8431;52.458;9.998;2024-02-23T05:48:49;4.78;;;4.57;;
16634;SDS011;8431;52.458;9.998;2024-02-23T05:51:29;4.10;;;4.00;;
16634;SDS011;8431;52.458;9.998;2024-02-23T05:58:38;4.20;;;4.10;;
16634;SDS011;8431;52.458;9.998;2024-02-23T06:01:57;4.30;;;4.20;;
16634;SDS011;8431;52.458;9.998;2024-02-23T06:05:22;4.60;;;4.40;;
16634;SDS011;8431;52.458;9.998;2024-02-23T06:08:23;4.18;;;4.07;;
16634;SDS011;8431;52.458;9.998;2024-02-23T06:15:35;4.53;;;4.22;;
16634;SDS011;8431;52.458;9.998;2024-02-23T06:18:33;4.75;;;4.55;;
16634;SDS011;8431;52.458;9.998;2024-02-23T06:21:10;4.45;;;4.25;;
16634;SDS011;8431;52.458;9.998;2024-02-23T06:23:38;4.45;;;4.18;;
16634;SDS011;8431;52.458;9.998;2024-02-23T06:26:05;4.95;;;4.65;;
16634;SDS011;8431;52.458;9.998;2024-02-23T06:28:32;5.90;;;5.38;;
16634;SDS011;8431;52.458;9.998;2024-02-23T06:31:00;5.35;;;4.70;;
16634;SDS011;8431;52.458;9.998;2024-02-23T06:33:29;5.18;;;4.97;;
16634;SDS011;8431;52.458;9.998;2024-02-23T06:35:56;5.45;;;5.10;;
16634;SDS011;8431;52.458;9.998;2024-02-23T06:38:23;5.35;;;4.95;;
16634;SDS011;8431;52.458;9.998;2024-02-23T06:40:50;3.90;;;3.80;;
16634;SDS011;8431;52.458;9.998;2024-02-23T06:43:17;5.97;;;5.50;;
16634;SDS011;8431;52.458;9.998;2024-02-23T06:45:44;7.05;;;6.55;;
16634;SDS011;8431;52.458;9.998;2024-02-23T06:48:12;5.45;;;5.15;;
16634;SDS011;8431;52.458;9.998;2024-02-23T06:50:39;5.25;;;4.95;;
16634;SDS011;8431;52.458;9.998;2024-02-23T06:53:06;5.00;;;4.75;;
16634;SDS011;8431;52.458;9.998;2024-02-23T06:55:33;5.03;;;4.72;;
16634;SDS011;8431;52.458;9.998;2024-02-23T06:58:00;7.65;;;5.40;;
16634;SDS011;8431;52.458;9.998;2024-02-23T07:00:29;6.03;;;5.63;;
16634;SDS011;8431;52.458;9.998;2024-02-23T07:02:56;5.30;;;5.05;;
16634;SDS011;8431;52.458;9.998;2024-02-23T07:05:25;5.95;;;5.47;;
16634;SDS011;8431;52.458;9.998;2024-02-23T07:07:52;5.70;;;5.25;;
16634;SDS011;8431;52.458;9.998;2024-02-23T07:10:19;5.78;;;5.38;;
16634;SDS011;8431;52.458;9.998;2024-02-23T07:12:47;5.68;;;5.20;;
16634;SDS011;8431;52.458;9.998;2024-02-23T07:15:18;5.75;;;5.40;;
16634;SDS011;8431;52.458;9.998;2024-02-23T07:17:45;6.72;;;6.32;;
16634;SDS011;8431;52.458;9.998;2024-02-23T07:20:12;6.45;;;5.90;;
16634;SDS011;8431;52.458;9.998;2024-02-23T07:22:42;5.53;;;5.22;;
16634;SDS011;8431;52.458;9.998;2024-02-23T07:25:10;5.55;;;5.15;;
16634;SDS011;8431;52.458;9.998;2024-02-23T07:27:36;6.22;;;5.93;;
16634;SDS011;8431;52.458;9.998;2024-02-23T07:33:25;4.70;;;4.47;;
16634;SDS011;8431;52.458;9.998;2024-02-23T07:39:00;4.32;;;4.18;;
16634;SDS011;8431;52.458;9.998;2024-02-23T07:41:27;4.88;;;4.65;;
16634;SDS011;8431;52.458;9.998;2024-02-23T07:43:54;7.60;;;5.20;;
16634;SDS011;8431;52.458;9.998;2024-02-23T07:46:21;5.82;;;5.43;;
16634;SDS011;8431;52.458;9.998;2024-02-23T07:48:48;5.68;;;5.28;;
16634;SDS011;8431;52.458;9.998;2024-02-23T07:53:49;5.55;;;5.25;;
16634;SDS011;8431;52.458;9.998;2024-02-23T07:56:17;5.20;;;4.82;;
16634;SDS011;8431;52.458;9.998;2024-02-23T07:58:44;5.55;;;5.15;;
16634;SDS011;8431;52.458;9.998;2024-02-23T08:01:11;4.63;;;4.40;;
16634;SDS011;8431;52.458;9.998;2024-02-23T08:03:39;5.50;;;5.15;;
16634;SDS011;8431;52.458;9.998;2024-02-23T08:06:18;4.38;;;4.25;;
16634;SDS011;8431;52.458;9.998;2024-02-23T08:08:45;4.60;;;4.40;;
16634;SDS011;8431;52.458;9.998;2024-02-23T08:11:14;5.68;;;5.20;;
16634;SDS011;8431;52.458;9.998;2024-02-23T08:13:42;5.30;;;5.00;;
16634;SDS011;8431;52.458;9.998;2024-02-23T08:16:09;5.40;;;5.05;;
16634;SDS011;8431;52.458;9.998;2024-02-23T08:18:42;5.30;;;5.00;;
16634;SDS011;8431;52.458;9.998;2024-02-23T08:21:09;4.60;;;4.40;;
16634;SDS011;8431;52.458;9.998;2024-02-23T08:23:36;4.75;;;4.60;;
16634;SDS011;8431;52.458;9.998;2024-02-23T08:26:03;5.10;;;4.90;;
16634;SDS011;8431;52.458;9.998;2024-02-23T08:28:30;5.30;;;5.10;;
16634;SDS011;8431;52.458;9.998;2024-02-23T08:30:58;5.30;;;5.00;;
16634;SDS011;8431;52.458;9.998;2024-02-23T08:33:25;6.05;;;5.43;;
16634;SDS011;8431;52.458;9.998;2024-02-23T08:35:52;6.13;;;5.63;;
16634;SDS011;8431;52.458;9.998;2024-02-23T08:38:18;6.00;;;5.65;;
16634;SDS011;8431;52.458;9.998;2024-02-23T08:40:45;5.22;;;4.93;;
16634;SDS011;8431;52.458;9.998;2024-02-23T08:43:13;5.28;;;4.95;;
16634;SDS011;8431;52.458;9.998;2024-02-23T08:45:40;5.97;;;5.50;;
16634;SDS011;8431;52.458;9.998;2024-02-23T08:48:12;5.60;;;5.40;;
16634;SDS011;8431;52.458;9.998;2024-02-23T08:50:40;4.85;;;4.70;;
16634;SDS011;8431;52.458;9.998;2024-02-23T08:53:09;5.32;;;4.93;;
16634;SDS011;8431;52.458;9.998;2024-02-23T08:55:35;6.13;;;5.72;;
16634;SDS011;8431;52.458;9.998;2024-02-23T08:58:02;6.10;;;5.70;;
16634;SDS011;8431;52.458;9.998;2024-02-23T09:00:30;6.03;;;5.63;;
16634;SDS011;8431;52.458;9.998;2024-02-23T09:02:57;5.85;;;5.45;;
16634;SDS011;8431;52.458;9.998;2024-02-23T09:05:29;6.07;;;5.50;;
16634;SDS011;8431;52.458;9.998;2024-02-23T09:07:56;5.93;;;5.63;;
16634;SDS011;8431;52.458;9.998;2024-02-23T09:10:23;6.25;;;5.85;;
16634;SDS011;8431;52.458;9.998;2024-02-23T09:12:50;5.72;;;5.43;;
16634;SDS011;8431;52.458;9.998;2024-02-23T09:15:23;5.07;;;4.88;;
16634;SDS011;8431;52.458;9.998;2024-02-23T09:17:49;5.30;;;5.20;;
16634;SDS011;8431;52.458;9.998;2024-02-23T09:20:16;5.43;;;5.22;;
16634;SDS011;8431;52.458;9.998;2024-02-23T09:22:44;4.90;;;4.70;;
16634;SDS011;8431;52.458;9.998;2024-02-23T09:25:12;5.75;;;5.30;;
16634;SDS011;8431;52.458;9.998;2024-02-23T09:27:38;5.93;;;5.63;;
16634;SDS011;8431;52.458;9.998;2024-02-23T09:30:09;5.85;;;5.55;;
16634;SDS011;8431;52.458;9.998;2024-02-23T09:32:37;5.55;;;5.25;;
16634;SDS011;8431;52.458;9.998;2024-02-23T09:35:04;5.57;;;5.38;;
16634;SDS011;8431;52.458;9.998;2024-02-23T09:37:31;5.45;;;5.10;;
16634;SDS011;8431;52.458;9.998;2024-02-23T09:40:02;5.25;;;5.05;;
16634;SDS011;8431;52.458;9.998;2024-02-23T09:42:28;5.25;;;5.05;;
16634;SDS011;8431;52.458;9.998;2024-02-23T09:44:57;5.40;;;5.13;;
16634;SDS011;8431;52.458;9.998;2024-02-23T09:47:27;6.00;;;5.70;;
16634;SDS011;8431;52.458;9.998;2024-02-23T09:49:54;5.25;;;5.05;;
16634;SDS011;8431;52.458;9.998;2024-02-23T09:52:22;5.72;;;5.30;;
16634;SDS011;8431;52.458;9.998;2024-02-23T09:54:49;5.00;;;4.70;;
16634;SDS011;8431;52.458;9.998;2024-02-23T09:57:17;5.28;;;5.18;;
16634;SDS011;8431;52.458;9.998;2024-02-23T09:59:44;5.60;;;5.20;;
16634;SDS011;8431;52.458;9.998;2024-02-23T10:02:15;4.70;;;4.50;;
16634;SDS011;8431;52.458;9.998;2024-02-23T10:04:42;5.38;;;4.88;;
16634;SDS011;8431;52.458;9.998;2024-02-23T10:07:10;5.40;;;5.20;;
16634;SDS011;8431;52.458;9.998;2024-02-23T10:09:40;5.15;;;4.85;;
16634;SDS011;8431;52.458;9.998;2024-02-23T10:12:07;4.85;;;4.47;;
16634;SDS011;8431;52.458;9.998;2024-02-23T10:14:35;4.72;;;4.53;;
16634;SDS011;8431;52.458;9.998;2024-02-23T10:17:02;5.97;;;5.78;;
16634;SDS011;8431;52.458;9.998;2024-02-23T10:19:31;6.10;;;5.80;;
16634;SDS011;8431;52.458;9.998;2024-02-23T10:22:00;5.65;;;5.43;;
16634;SDS011;8431;52.458;9.998;2024-02-23T10:24:27;5.50;;;5.20;;
16634;SDS011;8431;52.458;9.998;2024-02-23T10:26:54;5.78;;;5.68;;
16634;SDS011;8431;52.458;9.998;2024-02-23T10:29:21;5.93;;;5.72;;
16634;SDS011;8431;52.458;9.998;2024-02-23T10:31:49;5.07;;;4.72;;
16634;SDS011;8431;52.458;9.998;2024-02-23T10:34:18;4.78;;;4.57;;
16634;SDS011;8431;52.458;9.998;2024-02-23T10:36:46;5.68;;;5.35;;
16634;SDS011;8431;52.458;9.998;2024-02-23T10:39:15;5.72;;;5.38;;
16634;SDS011;8431;52.458;9.998;2024-02-23T10:41:44;5.32;;;5.03;;
16634;SDS011;8431;52.458;9.998;2024-02-23T10:44:16;6.32;;;6.03;;
16634;SDS011;8431;52.458;9.998;2024-02-23T10:46:44;5.82;;;5.63;;
16634;SDS011;8431;52.458;9.998;2024-02-23T10:49:13;6.15;;;5.95;;
16634;SDS011;8431;52.458;9.998;2024-02-23T10:51:42;5.55;;;5.35;;
16634;SDS011;8431;52.458;9.998;2024-02-23T10:54:12;6.18;;;5.68;;
16634;SDS011;8431;52.458;9.998;2024-02-23T10:56:39;5.47;;;5.28;;
16634;SDS011;8431;52.458;9.998;2024-02-23T10:59:06;6.13;;;5.80;;
16634;SDS011;8431;52.458;9.998;2024-02-23T11:01:34;5.30;;;4.93;;
16634;SDS011;8431;52.458;9.998;2024-02-23T11:04:04;4.80;;;4.60;;
16634;SDS011;8431;52.458;9.998;2024-02-23T11:06:35;5.25;;;5.10;;
16634;SDS011;8431;52.458;9.998;2024-02-23T11:09:05;5.47;;;5.28;;
16634;SDS011;8431;52.458;9.998;2024-02-23T11:11:33;5.85;;;5.55;;
16634;SDS011;8431;52.458;9.998;2024-02-23T11:14:02;5.35;;;5.15;;
16634;SDS011;8431;52.458;9.998;2024-02-23T11:16:29;5.65;;;5.45;;
16634;SDS011;8431;52.458;9.998;2024-02-23T11:19:03;5.85;;;5.65;;
16634;SDS011;8431;52.458;9.998;2024-02-23T11:21:34;5.63;;;5.32;;
16634;SDS011;8431;52.458;9.998;2024-02-23T11:24:03;5.75;;;5.45;;
16634;SDS011;8431;52.458;9.998;2024-02-23T11:26:30;6.05;;;5.75;;
16634;SDS011;8431;52.458;9.998;2024-02-23T11:28:58;6.55;;;6.07;;
16634;SDS011;8431;52.458;9.998;2024-02-23T11:31:28;5.90;;;5.50;;
16634;SDS011;8431;52.458;9.998;2024-02-23T11:33:56;5.55;;;5.35;;
16634;SDS011;8431;52.458;9.998;2024-02-23T11:36:23;5.53;;;5.20;;
16634;SDS011;8431;52.458;9.998;2024-02-23T11:38:56;5.70;;;5.50;;
16634;SDS011;8431;52.458;9.998;2024-02-23T11:41:23;4.93;;;4.57;;
16634;SDS011;8431;52.458;9.998;2024-02-23T11:43:51;5.93;;;5.60;;
16634;SDS011;8431;52.458;9.998;2024-02-23T11:46:20;5.50;;;5.10;;
16634;SDS011;8431;52.458;9.998;2024-02-23T11:48:47;5.45;;;5.25;;
16634;SDS011;8431;52.458;9.998;2024-02-23T11:51:18;5.82;;;5.30;;
16634;SDS011;8431;52.458;9.998;2024-02-23T11:53:45;4.65;;;4.45;;
16634;SDS011;8431;52.458;9.998;2024-02-23T11:56:14;5.20;;;5.00;;
16634;SDS011;8431;52.458;9.998;2024-02-23T11:58:42;5.60;;;5.30;;
16634;SDS011;8431;52.458;9.998;2024-02-23T12:01:09;6.15;;;5.85;;
16634;SDS011;8431;52.458;9.998;2024-02-23T12:03:36;6.28;;;5.78;;
16634;SDS011;8431;52.458;9.998;2024-02-23T12:06:04;5.70;;;5.50;;
16634;SDS011;8431;52.458;9.998;2024-02-23T12:08:32;5.63;;;5.18;;
16634;SDS011;8431;52.458;9.998;2024-02-23T12:11:03;5.32;;;5.13;;
16634;SDS011;8431;52.458;9.998;2024-02-23T12:13:31;5.80;;;5.50;;
16634;SDS011;8431;52.458;9.998;2024-02-23T12:15:59;5.60;;;5.40;;
16634;SDS011;8431;52.458;9.998;2024-02-23T12:18:25;5.63;;;5.35;;
16634;SDS011;8431;52.458;9.998;2024-02-23T12:20:54;5.00;;;4.80;;
16634;SDS011;8431;52.458;9.998;2024-02-23T12:23:26;5.15;;;5.05;;
16634;SDS011;8431;52.458;9.998;2024-02-23T12:25:53;5.68;;;5.38;;
16634;SDS011;8431;52.458;9.998;2024-02-23T12:28:20;5.57;;;5.38;;
16634;SDS011;8431;52.458;9.998;2024-02-23T12:30:58;6.53;;;6.22;;
16634;SDS011;8431;52.458;9.998;2024-02-23T12:33:29;7.32;;;6.95;;
16634;SDS011;8431;52.458;9.998;2024-02-23T12:35:57;6.10;;;5.88;;
16634;SDS011;8431;52.458;9.998;2024-02-23T12:38:24;7.78;;;7.38;;
16634;SDS011;8431;52.458;9.998;2024-02-23T12:40:51;8.07;;;7.55;;
16634;SDS011;8431;52.458;9.998;2024-02-23T12:43:18;7.40;;;6.93;;
16634;SDS011;8431;52.458;9.998;2024-02-23T12:45:46;6.75;;;6.45;;
16634;SDS011;8431;52.458;9.998;2024-02-23T12:48:15;7.10;;;6.78;;
16634;SDS011;8431;52.458;9.998;2024-02-23T12:50:42;7.10;;;6.70;;
16634;SDS011;8431;52.458;9.998;2024-02-23T12:53:10;6.15;;;5.72;;
16634;SDS011;8431;52.458;9.998;2024-02-23T12:55:55;6.03;;;5.82;;
16634;SDS011;8431;52.458;9.998;2024-02-23T12:58:22;5.60;;;5.40;;
16634;SDS011;8431;52.458;9.998;2024-02-23T13:00:50;5.97;;;5.68;;
16634;SDS011;8431;52.458;9.998;2024-02-23T13:03:19;6.63;;;6.18;;
16634;SDS011;8431;52.458;9.998;2024-02-23T13:05:46;6.65;;;6.40;;
16634;SDS011;8431;52.458;9.998;2024-02-23T13:08:13;6.18;;;5.97;;
16634;SDS011;8431;52.458;9.998;2024-02-23T13:10:48;6.60;;;6.40;;
16634;SDS011;8431;52.458;9.998;2024-02-23T13:13:15;5.82;;;5.63;;
16634;SDS011;8431;52.458;9.998;2024-02-23T13:15:46;6.28;;;5.97;;
16634;SDS011;8431;52.458;9.998;2024-02-23T13:18:32;5.80;;;5.50;;
16634;SDS011;8431;52.458;9.998;2024-02-23T13:20:59;5.47;;;5.18;;
16634;SDS011;8431;52.458;9.998;2024-02-23T13:23:32;6.13;;;5.82;;
16634;SDS011;8431;52.458;9.998;2024-02-23T13:25:58;6.53;;;6.13;;
16634;SDS011;8431;52.458;9.998;2024-02-23T13:28:31;5.95;;;5.75;;
16634;SDS011;8431;52.458;9.998;2024-02-23T13:31:06;5.68;;;5.20;;
16634;SDS011;8431;52.458;9.998;2024-02-23T13:33:35;5.82;;;5.63;;
16634;SDS011;8431;52.458;9.998;2024-02-23T13:36:08;6.22;;;5.85;;
16634;SDS011;8431;52.458;9.998;2024-02-23T13:38:38;5.93;;;5.70;;
16634;SDS011;8431;52.458;9.998;2024-02-23T13:41:06;5.78;;;5.57;;
16634;SDS011;8431;52.458;9.998;2024-02-23T13:43:33;6.20;;;5.90;;
16634;SDS011;8431;52.458;9.998;2024-02-23T13:46:00;6.22;;;5.93;;
16634;SDS011;8431;52.458;9.998;2024-02-23T13:48:29;6.20;;;5.82;;
16634;SDS011;8431;52.458;9.998;2024-02-23T13:50:57;6.07;;;5.75;;
16634;SDS011;8431;52.458;9.998;2024-02-23T13:53:28;5.30;;;5.10;;
16634;SDS011;8431;52.458;9.998;2024-02-23T13:55:55;5.57;;;5.38;;
16634;SDS011;8431;52.458;9.998;2024-02-23T13:58:22;5.05;;;4.75;;
16634;SDS011;8431;52.458;9.998;2024-02-23T14:00:49;6.13;;;5.63;;
16634;SDS011;8431;52.458;9.998;2024-02-23T14:03:16;5.95;;;5.57;;
16634;SDS011;8431;52.458;9.998;2024-02-23T14:05:44;5.63;;;5.53;;
16634;SDS011;8431;52.458;9.998;2024-02-23T14:08:12;5.50;;;5.03;;
16634;SDS011;8431;52.458;9.998;2024-02-23T14:10:39;5.35;;;5.10;;
16634;SDS011;8431;52.458;9.998;2024-02-23T14:13:08;5.47;;;5.38;;
16634;SDS011;8431;52.458;9.998;2024-02-23T14:15:35;5.60;;;5.40;;
16634;SDS011;8431;52.458;9.998;2024-02-23T14:18:01;5.28;;;5.07;;
16634;SDS011;8431;52.458;9.998;2024-02-23T14:20:28;5.38;;;5.20;;
16634;SDS011;8431;52.458;9.998;2024-02-23T14:22:55;5.97;;;5.68;;
16634;SDS011;8431;52.458;9.998;2024-02-23T14:25:24;6.57;;;6.22;;
16634;SDS011;8431;52.458;9.998;2024-02-23T14:27:51;6.18;;;5.68;;
16634;SDS011;8431;52.458;9.998;2024-02-23T14:30:20;5.55;;;5.35;;
16634;SDS011;8431;52.458;9.998;2024-02-23T14:32:47;6.35;;;6.05;;
16634;SDS011;8431;52.458;9.998;2024-02-23T14:35:14;6.10;;;5.80;;
16634;SDS011;8431;52.458;9.998;2024-02-23T14:37:41;5.85;;;5.50;;
16634;SDS011;8431;52.458;9.998;2024-02-23T14:40:08;5.90;;;5.60;;
16634;SDS011;8431;52.458;9.998;2024-02-23T14:42:38;5.55;;;5.30;;
16634;SDS011;8431;52.458;9.998;2024-02-23T14:45:06;5.80;;;5.60;;
16634;SDS011;8431;52.458;9.998;2024-02-23T14:47:34;4.97;;;4.68;;
16634;SDS011;8431;52.458;9.998;2024-02-23T14:50:01;4.55;;;4.35;;
16634;SDS011;8431;52.458;9.998;2024-02-23T14:52:29;5.20;;;5.00;;
16634;SDS011;8431;52.458;9.998;2024-02-23T14:54:56;5.50;;;5.20;;
16634;SDS011;8431;52.458;9.998;2024-02-23T14:57:23;5.43;;;5.18;;
16634;SDS011;8431;52.458;9.998;2024-02-23T14:59:51;4.85;;;4.55;;
16634;SDS011;8431;52.458;9.998;2024-02-23T15:02:18;5.15;;;4.90;;
16634;SDS011;8431;52.458;9.998;2024-02-23T15:04:52;5.07;;;4.63;;
16634;SDS011;8431;52.458;9.998;2024-02-23T15:07:19;5.35;;;5.05;;
16634;SDS011;8431;52.458;9.998;2024-02-23T15:09:46;4.93;;;4.72;;
16634;SDS011;8431;52.458;9.998;2024-02-23T15:12:16;6.05;;;4.57;;
16634;SDS011;8431;52.458;9.998;2024-02-23T15:14:43;4.90;;;4.68;;
16634;SDS011;8431;52.458;9.998;2024-02-23T15:17:11;5.18;;;4.95;;
16634;SDS011;8431;52.458;9.998;2024-02-23T15:19:41;5.63;;;5.22;;
16634;SDS011;8431;52.458;9.998;2024-02-23T15:22:08;4.90;;;4.60;;
16634;SDS011;8431;52.458;9.998;2024-02-23T15:24:42;5.28;;;4.97;;
16634;SDS011;8431;52.458;9.998;2024-02-23T15:27:10;5.70;;;5.40;;